Time;durP1;ratioP1;P1;durP2;ratioP2;P2;SDS_P1;SDS_P2;PMS_P1;PMS_P2;Temp;Humidity;BMP_temperature;BMP_pressure;BME280_temperature;BME280_humidity;BME280_pressure;Samples;Min_cycle;Max_cycle;Signal;HPM_P1;HPM_P2
2022/09/04 00:00:09;;;;;;;7.63;6.03;;;17.50;99.90;;;17.84;69.85;95360.69;6176261;23;20475;-56
2022/09/04 00:03:21;;;;;;;7.23;5.80;;;17.50;99.90;;;17.79;69.95;95365.72;6176588;23;20400;-56
2022/09/04 00:05:50;;;;;;;7.10;6.47;;;17.50;99.90;;;17.76;69.42;95366.06;6150168;23;21000;-56
2022/09/04 00:08:41;;;;;;;7.23;6.40;;;17.40;99.90;;;17.75;69.76;95367.06;6174877;23;20962;-56
2022/09/04 00:11:14;;;;;;;6.37;5.77;;;17.40;99.90;;;17.72;69.24;95370.91;6176097;23;20398;-56
2022/09/04 00:13:44;;;;;;;7.60;6.60;;;17.40;99.90;;;17.67;69.38;95367.91;6176979;23;20414;-56
2022/09/04 00:16:18;;;;;;;7.40;6.70;;;17.30;99.90;;;17.62;69.55;95367.59;6176907;23;20770;-57
2022/09/04 00:18:49;;;;;;;15.43;7.63;;;17.30;99.90;;;17.56;69.09;95368.28;6176186;23;20428;-58
2022/09/04 00:21:21;;;;;;;6.97;5.80;;;17.20;99.90;;;17.48;69.67;95374.47;6176447;23;20456;-58
2022/09/04 00:23:51;;;;;;;13.63;6.53;;;17.20;99.90;;;17.43;69.31;95382.13;6176107;23;21012;-57
2022/09/04 00:26:35;;;;;;;8.10;6.00;;;17.10;99.90;;;17.38;69.79;95379.13;6176122;23;20454;-57
2022/09/04 00:29:06;;;;;;;9.87;7.83;;;17.10;99.90;;;17.34;69.76;95377.81;6175914;23;20421;-56
2022/09/04 00:31:37;;;;;;;7.13;6.43;;;17.00;99.90;;;17.29;70.18;95370.34;6177026;23;20386;-56
2022/09/04 00:34:10;;;;;;;9.53;7.20;;;17.00;99.90;;;17.26;70.42;95375.16;6175511;23;21008;-56
2022/09/04 00:36:45;;;;;;;9.13;6.73;;;17.00;99.90;;;17.24;70.79;95382.47;6177349;23;20397;-56
2022/09/04 00:39:15;;;;;;;12.23;6.63;;;16.90;99.90;;;17.20;70.96;95377.50;6176597;23;20413;-56
2022/09/04 00:41:55;;;;;;;15.57;6.97;;;16.90;99.90;;;17.19;70.88;95362.53;6176698;23;20476;-57
2022/09/04 00:44:40;;;;;;;7.53;6.77;;;16.90;99.90;;;17.18;70.86;95374.19;6177089;23;20429;-61
2022/09/04 00:47:55;;;;;;;10.23;6.83;;;16.90;99.90;;;17.16;71.08;95373.50;6176094;23;20855;-57
2022/09/04 00:50:37;;;;;;;10.50;7.33;;;16.90;99.90;;;17.15;71.26;95366.56;6086895;23;20409;-56
2022/09/04 00:53:31;;;;;;;7.27;6.63;;;16.80;99.90;;;17.14;71.29;95367.53;6176097;23;20755;-55
2022/09/04 00:56:15;;;;;;;11.90;7.83;;;16.80;99.90;;;17.13;71.12;95375.69;6175930;23;20397;-57
2022/09/04 00:58:54;;;;;;;7.77;6.40;;;16.80;99.90;;;17.10;71.00;95360.91;6176146;23;20414;-54
2022/09/04 01:01:24;;;;;;;11.83;7.23;;;16.80;99.90;;;17.08;70.93;95370.06;6175865;23;20390;-55
2022/09/04 01:04:18;;;;;;;8.37;7.53;;;16.80;99.90;;;17.05;71.59;95365.06;6177814;23;21019;-55
2022/09/04 01:06:53;;;;;;;10.93;7.27;;;16.70;99.90;;;17.01;71.52;95362.75;6153311;23;20817;-56
2022/09/04 01:09:46;;;;;;;13.53;7.07;;;16.70;99.90;;;16.95;71.53;95374.03;6178035;23;20748;-54
2022/09/04 01:12:25;;;;;;;8.90;7.70;;;16.60;99.90;;;16.91;71.57;95367.38;6178021;23;20902;-57
2022/09/04 01:14:59;;;;;;;8.60;7.80;;;16.70;99.90;;;16.90;71.67;95371.06;6177847;23;20508;-55
2022/09/04 01:17:31;;;;;;;9.83;7.60;;;16.60;99.90;;;16.90;71.54;95372.88;6178431;23;20396;-55
2022/09/04 01:20:02;;;;;;;11.50;7.93;;;16.60;99.90;;;16.88;71.51;95377.53;6177543;23;20424;-56
2022/09/04 01:23:04;;;;;;;9.00;8.13;;;16.60;99.90;;;16.82;72.11;95382.50;6178346;23;20401;-57
2022/09/04 01:25:53;;;;;;;11.30;8.00;;;16.60;99.90;;;16.77;71.90;95376.81;6119409;23;20405;-55
2022/09/04 01:28:26;;;;;;;13.80;8.20;;;16.50;99.90;;;16.74;72.10;95376.34;6177564;23;20791;-57
2022/09/04 01:30:59;;;;;;;9.30;7.63;;;16.50;99.90;;;16.71;72.35;95369.50;6178204;23;20394;-57
2022/09/04 01:33:31;;;;;;;10.73;8.70;;;16.40;99.90;;;16.68;71.97;95361.88;6177481;23;20519;-57
2022/09/04 01:36:03;;;;;;;13.63;7.90;;;16.40;99.90;;;16.63;72.54;95359.72;6177608;23;20785;-57
2022/09/04 01:38:35;;;;;;;12.73;7.80;;;16.40;99.90;;;16.61;72.53;95366.22;6177971;23;20545;-56
2022/09/04 01:41:11;;;;;;;9.10;7.27;;;16.30;99.90;;;16.53;72.61;95359.06;6177006;23;20415;-54
2022/09/04 01:43:38;;;;;;;10.57;7.50;;;16.30;99.90;;;16.52;72.61;95362.72;6177333;23;20480;-57
2022/09/04 01:46:33;;;;;;;8.57;7.70;;;16.20;99.90;;;16.52;72.95;95365.38;6177421;23;20410;-57
2022/09/04 01:49:05;;;;;;;10.40;7.20;;;16.30;99.90;;;16.53;72.88;95369.69;6177695;23;20515;-57
2022/09/04 01:51:39;;;;;;;9.20;8.30;;;16.20;99.90;;;16.55;72.98;95372.19;6177734;23;20412;-56
2022/09/04 01:54:23;;;;;;;7.60;6.90;;;16.20;99.90;;;16.56;73.06;95373.81;6177249;23;20492;-56
2022/09/04 01:56:59;;;;;;;12.97;7.37;;;16.30;99.90;;;16.56;73.10;95357.88;6177396;23;20390;-56
2022/09/04 01:59:29;;;;;;;7.53;6.83;;;16.30;99.90;;;16.56;73.08;95355.22;6178094;23;20417;-55
2022/09/04 02:02:00;;;;;;;9.37;7.80;;;16.30;99.90;;;16.55;72.86;95361.56;6177583;23;20425;-56
2022/09/04 02:04:31;;;;;;;8.50;7.53;;;16.20;99.90;;;16.54;72.83;95359.88;6178102;23;20422;-57
2022/09/04 02:07:04;;;;;;;9.10;7.50;;;16.20;99.90;;;16.54;72.72;95360.72;6179167;23;20930;-57
2022/09/04 02:09:37;;;;;;;6.80;6.20;;;16.20;99.90;;;16.55;73.11;95361.56;6179371;23;20417;-57
2022/09/04 02:12:14;;;;;;;9.30;8.33;;;16.30;99.90;;;16.57;72.92;95354.25;6177598;23;20440;-55
2022/09/04 02:14:46;;;;;;;11.30;7.03;;;16.20;99.90;;;16.58;73.24;95350.59;6177610;23;20496;-57
2022/09/04 02:17:18;;;;;;;9.17;7.60;;;16.30;99.90;;;16.58;72.97;95353.25;6177273;23;20901;-56
2022/09/04 02:20:12;;;;;;;7.73;6.93;;;16.30;99.90;;;16.60;73.37;95356.56;6177487;23;20508;-56
2022/09/04 02:22:44;;;;;;;8.50;6.50;;;16.30;99.90;;;16.61;73.09;95360.91;6178602;23;20722;-57
2022/09/04 02:25:20;;;;;;;8.77;7.43;;;16.30;99.90;;;16.63;73.07;95342.97;6177004;23;20487;-58
2022/09/04 02:27:54;;;;;;;7.27;6.53;;;16.30;99.90;;;16.62;72.77;95347.44;6177970;23;20433;-57
2022/09/04 02:30:22;;;;;;;7.53;6.83;;;16.30;99.90;;;16.62;72.81;95335.97;6177557;23;20408;-56
2022/09/04 02:32:55;;;;;;;8.87;7.50;;;16.30;99.90;;;16.60;72.41;95341.47;6177323;23;20401;-55
2022/09/04 02:35:28;;;;;;;14.73;8.77;;;16.30;99.90;;;16.56;72.78;95326.00;6177480;23;20467;-57
2022/09/04 02:38:04;;;;;;;8.10;6.37;;;16.30;99.90;;;16.56;72.99;95333.97;6177534;23;20452;-57
2022/09/04 02:40:35;;;;;;;9.30;6.27;;;16.30;99.90;;;16.56;72.88;95347.25;6177309;23;20397;-55
2022/09/04 02:43:27;;;;;;;7.10;6.40;;;16.20;99.90;;;16.55;72.96;95340.31;6176688;23;20460;-56
2022/09/04 02:46:00;;;;;;;11.03;7.27;;;16.20;99.90;;;16.53;72.87;95348.44;6177031;23;20704;-57
2022/09/04 02:48:33;;;;;;;10.40;7.50;;;16.20;99.90;;;16.52;72.94;95352.09;6176715;23;20488;-58
2022/09/04 02:51:13;;;;;;;7.73;6.97;;;16.20;99.90;;;16.50;72.85;95354.09;6176952;23;20394;-57
2022/09/04 02:53:45;;;;;;;7.40;6.60;;;16.20;99.90;;;16.49;73.08;95358.53;6176830;23;20480;-55
2022/09/04 02:56:23;;;;;;;11.20;8.20;;;16.20;99.90;;;16.51;73.22;95361.03;6176402;23;20452;-55
2022/09/04 02:59:02;;;;;;;25.27;8.83;;;16.20;99.90;;;16.55;73.03;95365.03;6177050;23;20426;-55
2022/09/04 03:01:32;;;;;;;21.80;10.37;;;16.30;99.90;;;16.56;72.97;95365.84;6177065;23;20480;-56
2022/09/04 03:04:04;;;;;;;23.23;9.40;;;16.30;99.90;;;16.55;73.29;95372.19;6176730;23;20422;-56
2022/09/04 03:06:47;;;;;;;17.50;8.30;;;16.20;99.90;;;16.56;73.29;95379.13;6177394;23;20402;-55
2022/09/04 03:09:18;;;;;;;20.07;9.33;;;16.30;99.90;;;16.56;73.26;95369.34;6177027;23;20530;-55
2022/09/04 03:11:49;;;;;;;22.27;8.10;;;16.30;99.90;;;16.59;73.15;95368.19;6177211;23;20460;-55
2022/09/04 03:14:23;;;;;;;18.23;7.10;;;16.30;99.90;;;16.61;73.24;95374.19;6176683;23;20426;-54
2022/09/04 03:16:53;;;;;;;9.33;7.60;;;16.30;99.90;;;16.62;73.08;95368.69;6176775;23;20752;-56
2022/09/04 03:19:24;;;;;;;14.40;7.13;;;16.30;99.90;;;16.67;72.96;95369.03;6176987;23;20489;-56
2022/09/04 03:21:53;;;;;;;12.17;6.60;;;16.40;99.90;;;16.71;72.93;95360.72;6176433;23;20422;-57
2022/09/04 03:24:23;;;;;;;9.17;5.83;;;16.40;99.90;;;16.74;72.85;95363.06;6176353;23;20483;-56
2022/09/04 03:26:52;;;;;;;7.00;6.30;;;16.40;99.90;;;16.73;72.61;95359.56;6176586;23;20397;-57
2022/09/04 03:29:28;;;;;;;9.87;7.17;;;16.40;99.90;;;16.73;72.55;95369.34;6176512;23;20449;-56
2022/09/04 03:32:10;;;;;;;8.07;7.13;;;16.40;99.90;;;16.74;72.68;95371.03;6176385;23;20791;-56
2022/09/04 03:34:43;;;;;;;11.37;7.70;;;16.40;99.90;;;16.73;72.71;95383.47;6176457;23;20429;-57
2022/09/04 03:37:41;;;;;;;8.10;6.30;;;16.40;99.90;;;16.74;72.98;95376.34;6176239;23;20402;-57
2022/09/04 03:40:35;;;;;;;13.60;8.60;;;16.40;99.90;;;16.75;72.87;95372.69;6176651;23;20441;-60
2022/09/04 03:43:36;;;;;;;10.70;7.90;;;16.40;99.90;;;16.75;72.84;95378.81;6171607;23;20517;-58
2022/09/04 03:46:16;;;;;;;11.13;8.10;;;16.40;99.90;;;16.75;72.65;95389.44;6176734;23;20479;-56
2022/09/04 03:48:57;;;;;;;12.00;8.33;;;16.50;99.90;;;16.76;72.64;95392.94;6177089;23;20529;-57
2022/09/04 03:51:32;;;;;;;9.90;7.07;;;16.50;99.90;;;16.75;72.61;95389.44;6176648;23;20385;-58
2022/09/04 03:54:05;;;;;;;15.10;9.30;;;16.50;99.90;;;16.76;72.49;95398.25;6176154;23;20490;-56
2022/09/04 03:57:07;;;;;;;11.63;8.20;;;16.50;99.90;;;16.77;73.09;95397.25;6176537;23;20727;-56
2022/09/04 04:00:01;;;;;;;9.17;8.23;;;16.50;99.90;;;16.74;72.99;95398.41;6175230;23;20413;-58
2022/09/04 04:02:41;;;;;;;13.10;9.47;;;16.50;99.90;;;16.77;72.84;95400.72;6175180;23;20493;-57
2022/09/04 04:05:25;;;;;;;14.90;9.20;;;16.50;99.90;;;16.81;72.94;95411.88;6175809;23;20475;-58
2022/09/04 04:08:08;;;;;;;13.93;9.50;;;16.50;99.90;;;16.82;72.69;95425.00;6176445;23;20437;-56
2022/09/04 04:10:44;;;;;;;10.73;8.43;;;16.50;99.90;;;16.84;72.96;95436.28;6176952;23;20397;-55
2022/09/04 04:13:32;;;;;;;12.90;7.97;;;16.50;99.90;;;16.90;73.05;95439.31;6176156;23;20409;-56
2022/09/04 04:16:13;;;;;;;10.53;8.50;;;16.50;99.90;;;16.91;72.40;95430.34;6176123;23;20388;-57
2022/09/04 04:19:09;;;;;;;14.33;10.37;;;16.60;99.90;;;16.93;72.43;95429.19;6175944;23;20802;-55
2022/09/04 04:21:54;;;;;;;15.87;10.53;;;16.60;99.90;;;16.95;72.80;95442.31;6176271;23;20398;-56
2022/09/04 04:24:37;;;;;;;16.50;10.33;;;16.60;99.90;;;16.96;72.57;95449.28;6176358;23;20748;-56
2022/09/04 04:27:14;;;;;;;11.83;8.93;;;16.70;99.90;;;16.95;72.88;95443.13;6176151;23;20405;-56
2022/09/04 04:30:01;;;;;;;16.83;9.50;;;16.60;99.90;;;16.93;72.70;95450.44;6176166;23;20511;-56
2022/09/04 04:32:55;;;;;;;31.13;10.17;;;16.60;99.90;;;16.92;72.52;95458.59;6174703;23;20496;-57
2022/09/04 04:35:30;;;;;;;21.03;9.60;;;16.60;99.90;;;16.81;72.81;95463.19;6176206;23;20420;-56
2022/09/04 04:38:18;;;;;;;22.03;9.63;;;16.60;99.90;;;16.71;73.22;95456.34;6179105;23;20397;-54
2022/09/04 04:41:04;;;;;;;12.07;9.97;;;16.50;99.90;;;16.63;73.44;95450.03;6179470;23;20476;-55
2022/09/04 04:43:36;;;;;;;113.67;11.07;;;16.40;99.90;;;16.58;73.42;95440.91;6179681;23;20426;-58
2022/09/04 04:46:08;;;;;;;23.43;10.60;;;16.30;99.90;;;16.49;73.63;95445.34;6179415;23;20394;-54
2022/09/04 04:49:28;;;;;;;35.60;11.40;;;16.30;99.90;;;16.40;74.62;95456.94;6179110;23;20453;-57
2022/09/04 04:52:19;;;;;;;35.13;8.63;;;16.20;99.90;;;16.31;74.74;95458.72;6030768;23;21046;-56
2022/09/04 04:55:05;;;;;;;10.47;8.07;;;16.10;99.90;;;16.27;74.80;95466.19;6176050;23;20421;-56
2022/09/04 04:57:40;;;;;;;17.93;9.20;;;16.00;99.90;;;16.27;74.08;95465.38;6179256;23;20397;-55
2022/09/04 05:00:14;;;;;;;13.33;9.30;;;16.00;99.90;;;16.24;74.78;95463.03;6179141;23;20429;-55
2022/09/04 05:02:50;;;;;;;43.43;8.83;;;16.00;99.90;;;16.21;74.80;95466.00;6177645;23;20396;-56
2022/09/04 05:05:22;;;;;;;86.47;12.40;;;16.00;99.90;;;16.15;75.06;95461.34;6178895;23;20544;-57
2022/09/04 05:07:59;;;;;;;32.70;11.17;;;16.00;99.90;;;16.07;74.76;95462.94;6179806;23;20394;-54
2022/09/04 05:10:30;;;;;;;25.10;10.70;;;15.90;99.90;;;16.02;74.89;95457.31;6179639;23;20451;-54
2022/09/04 05:13:10;;;;;;;20.93;10.20;;;15.80;99.90;;;15.93;75.54;95458.25;6179317;23;20393;-53
2022/09/04 05:15:41;;;;;;;44.53;11.70;;;15.80;99.90;;;15.86;76.06;95452.72;6179472;23;20441;-56
2022/09/04 05:18:11;;;;;;;25.50;10.90;;;15.70;99.90;;;15.83;76.12;95446.91;6178975;23;20401;-55
2022/09/04 05:20:43;;;;;;;20.77;11.93;;;15.60;99.90;;;15.82;76.23;95456.69;6179570;23;20452;-56
2022/09/04 05:23:22;;;;;;;21.30;12.57;;;15.60;99.90;;;15.82;76.19;95475.28;6178809;23;20394;-54
2022/09/04 05:25:53;;;;;;;31.77;12.43;;;15.60;99.90;;;15.84;76.88;95480.41;6179356;23;20516;-57
2022/09/04 05:28:26;;;;;;;22.10;12.13;;;15.60;99.90;;;15.87;77.00;95496.03;6178693;23;20531;-55
2022/09/04 05:31:04;;;;;;;14.87;10.40;;;15.60;99.90;;;15.92;76.94;95477.81;6178467;23;20949;-55
2022/09/04 05:33:36;;;;;;;42.13;12.27;;;15.60;99.90;;;16.00;76.34;95483.13;6178085;23;20433;-56
2022/09/04 05:36:09;;;;;;;31.97;12.27;;;15.70;99.90;;;16.03;76.95;95485.47;6178921;23;20452;-57
2022/09/04 05:38:43;;;;;;;29.23;12.87;;;15.80;99.90;;;16.06;76.83;95477.19;6179214;23;20483;-56
2022/09/04 05:41:16;;;;;;;16.50;11.07;;;15.80;99.90;;;16.10;77.55;95481.22;6179189;23;20466;-54
2022/09/04 05:43:59;;;;;;;19.10;13.20;;;15.80;99.90;;;16.18;77.28;95490.22;6178823;23;20486;-55
2022/09/04 05:46:41;;;;;;;14.40;12.27;;;15.90;99.90;;;16.27;76.80;95482.13;6179397;23;20404;-54
2022/09/04 05:49:17;;;;;;;20.77;13.07;;;16.00;99.90;;;16.40;76.94;95483.50;6177395;23;20481;-58
2022/09/04 05:52:02;;;;;;;25.70;14.07;;;16.10;99.90;;;16.48;76.41;95480.84;6177550;23;20397;-55
2022/09/04 05:54:53;;;;;;;25.87;16.57;;;16.10;99.90;;;16.58;76.56;95483.38;6178272;23;20429;-56
2022/09/04 05:57:28;;;;;;;29.87;18.07;;;16.30;99.90;;;16.64;76.31;95464.16;6177552;23;20394;-56
2022/09/04 06:00:09;;;;;;;28.17;20.23;;;16.40;99.90;;;16.76;75.46;95464.66;6177661;23;21042;-57
2022/09/04 06:03:22;;;;;;;29.30;21.00;;;16.40;99.90;;;16.83;75.19;95457.69;6177123;23;20420;-55
2022/09/04 06:06:04;;;;;;;48.40;24.60;;;16.50;99.90;;;16.86;74.71;95446.78;6178128;23;20554;-54
2022/09/04 06:09:12;;;;;;;31.33;22.13;;;16.60;99.90;;;16.88;74.95;95450.09;6176836;23;20476;-55
2022/09/04 06:12:27;;;;;;;28.90;22.80;;;16.60;99.90;;;16.96;74.67;95459.91;6177768;23;20401;-57
2022/09/04 06:15:34;;;;;;;28.33;20.37;;;16.70;99.90;;;17.13;74.38;95455.41;6177130;23;20441;-56
2022/09/04 06:18:36;;;;;;;38.03;24.87;;;16.80;99.90;;;17.32;73.84;95448.94;6091280;23;20840;-58
2022/09/04 06:21:41;;;;;;;32.67;24.13;;;17.00;99.90;;;17.46;72.99;95450.94;6175898;23;20401;-60
2022/09/04 06:24:25;;;;;;;29.63;20.63;;;17.20;99.90;;;17.64;73.38;95447.25;6177478;23;20495;-55
2022/09/04 06:27:13;;;;;;;28.50;22.50;;;17.30;99.90;;;17.86;72.70;95449.19;6177355;23;20901;-59
2022/09/04 06:30:06;;;;;;;36.03;22.50;;;17.50;99.90;;;18.16;71.76;95440.63;6177577;23;20846;-58
2022/09/04 06:33:06;;;;;;;28.23;20.60;;;17.70;99.90;;;18.48;70.73;95439.63;6176687;23;20390;-59
2022/09/04 06:36:14;;;;;;;18.30;15.33;;;18.00;99.90;;;18.78;70.36;95451.28;6177964;23;20398;-59
2022/09/04 06:38:52;;;;;;;20.33;15.67;;;18.30;99.90;;;19.00;69.54;95451.50;6177435;23;21047;-61
2022/09/04 06:41:45;;;;;;;16.70;13.10;;;18.50;99.90;;;19.19;68.82;95447.53;6177553;23;20894;-56
2022/09/04 06:44:21;;;;;;;14.50;12.50;;;18.80;99.90;;;19.50;68.16;95449.25;6177067;23;20493;-61
2022/09/04 06:46:54;;;;;;;17.17;13.40;;;19.00;99.90;;;19.82;67.77;95448.16;6177239;23;20902;-57
2022/09/04 06:49:25;;;;;;;16.93;12.60;;;19.30;99.90;;;20.15;66.73;95447.78;6165198;23;20544;-53
2022/09/04 06:52:06;;;;;;;18.43;12.83;;;19.60;99.90;;;20.51;65.76;95448.84;6171347;23;20430;-55
2022/09/04 06:54:45;;;;;;;11.43;9.70;;;20.00;99.90;;;20.80;64.32;95441.81;6175050;23;20429;-55
2022/09/04 06:57:51;;;;;;;102.37;38.43;;;20.20;99.90;;;21.02;63.99;95453.34;6172476;23;20839;-58
2022/09/04 07:00:20;;;;;;;167.47;65.17;;;20.50;99.90;;;21.37;64.30;95446.25;6142912;23;20480;-56
2022/09/04 07:03:19;;;;;;;18.20;13.43;;;20.80;99.90;;;21.75;62.40;95443.28;6170175;23;20433;-57
2022/09/04 07:05:54;;;;;;;101.00;39.10;;;21.20;99.90;;;22.10;62.44;95445.97;6169485;23;20409;-54
2022/09/04 07:08:38;;;;;;;72.07;28.87;;;21.50;99.90;;;22.46;61.64;95438.75;6165089;23;20594;-56
2022/09/04 07:11:19;;;;;;;202.43;78.60;;;21.90;99.90;;;22.87;61.29;95449.41;6165573;23;20642;-60
2022/09/04 07:14:10;;;;;;;241.23;94.73;;;22.20;99.90;;;23.25;59.75;95446.22;6173928;23;20427;-56
2022/09/04 07:16:42;;;;;;;91.77;37.77;;;22.60;99.60;;;23.73;59.23;95445.19;6170921;23;20563;-57
2022/09/04 07:19:48;;;;;;;21.53;15.60;;;23.00;99.10;;;24.25;57.11;95453.41;6172919;23;20508;-60
2022/09/04 07:22:59;;;;;;;14.47;11.10;;;23.60;97.40;;;24.61;55.49;95449.38;6170479;23;20423;-61
2022/09/04 07:25:35;;;;;;;26.70;13.43;;;23.90;96.30;;;24.88;56.48;95449.25;6173355;23;20397;-57
2022/09/04 07:28:26;;;;;;;20.97;13.53;;;24.30;96.70;;;25.22;55.28;95433.72;6173149;23;20437;-54
2022/09/04 07:30:58;;;;;;;16.87;10.83;;;24.60;96.00;;;25.62;54.56;95435.31;6174398;23;20398;-56
2022/09/04 07:33:36;;;;;;;16.17;9.43;;;24.90;95.40;;;26.07;54.43;95445.91;6169056;23;20429;-55
2022/09/04 07:36:08;;;;;;;14.50;10.20;;;25.30;94.90;;;26.51;53.28;95448.53;6170585;23;20476;-56
2022/09/04 07:38:41;;;;;;;18.10;10.50;;;25.80;93.80;;;26.91;52.42;95454.31;6173284;23;20509;-54
2022/09/04 07:41:10;;;;;;;16.80;11.50;;;26.20;93.20;;;27.32;51.85;95465.41;6174033;23;20390;-54
2022/09/04 07:43:44;;;;;;;13.30;10.60;;;26.60;92.40;;;27.74;50.70;95468.06;6171774;23;20433;-55
2022/09/04 07:46:17;;;;;;;17.13;12.70;;;27.00;91.30;;;28.15;49.90;95469.09;6175138;23;20403;-54
2022/09/04 07:48:52;;;;;;;19.47;14.57;;;27.40;90.70;;;28.61;49.47;95469.28;6174190;23;20507;-55
2022/09/04 07:51:24;;;;;;;15.67;12.67;;;27.80;89.30;;;29.10;48.68;95474.31;6173892;23;20380;-59
2022/09/04 07:54:28;;;;;;;23.43;15.70;;;28.40;87.90;;;29.60;46.42;95468.19;6173669;23;20475;-56
2022/09/04 07:57:48;;;;;;;26.50;16.90;;;29.00;81.80;;;29.63;46.49;95475.84;6168919;23;20403;-55
2022/09/04 08:00:17;;;;;;;20.30;14.63;;;29.30;80.70;;;29.86;47.40;95479.50;6135549;23;20437;-54
2022/09/04 08:03:17;;;;;;;20.07;15.30;;;29.60;79.70;;;30.26;45.55;95483.09;6173889;23;20480;-56
2022/09/04 08:05:49;;;;;;;16.83;13.47;;;29.90;76.40;;;30.63;45.60;95477.94;6167978;23;20849;-60
2022/09/04 08:08:53;;;;;;;17.30;12.90;;;30.30;75.80;;;31.04;44.06;95486.59;6172543;23;20712;-56
2022/09/04 08:11:53;;;;;;;20.37;13.90;;;30.60;71.50;;;31.45;43.19;95497.13;6173175;23;20507;-63
2022/09/04 08:14:27;;;;;;;14.83;12.60;;;31.00;70.70;;;31.79;43.00;95503.16;6171904;23;20264;-60
2022/09/04 08:17:24;;;;;;;17.57;13.40;;;31.40;69.50;;;32.04;42.10;95488.13;6173901;23;20169;-54
2022/09/04 08:19:57;;;;;;;16.30;10.53;;;31.80;67.70;;;32.24;42.53;95484.78;6172072;23;20591;-60
2022/09/04 08:22:33;;;;;;;12.90;11.60;;;32.10;66.30;;;32.51;40.87;95492.00;6174803;23;20651;-53
2022/09/04 08:25:20;;;;;;;14.73;11.23;;;32.40;63.30;;;32.76;40.63;95482.38;6173792;23;20634;-55
2022/09/04 08:28:23;;;;;;;15.30;13.03;;;32.70;61.80;;;32.97;40.37;95489.53;6172767;23;20165;-59
2022/09/04 08:30:55;;;;;;;16.00;11.67;;;33.00;60.50;;;33.02;40.54;95483.28;6142885;23;20525;-54
2022/09/04 08:34:02;;;;;;;21.30;11.90;;;33.10;59.80;;;33.15;39.33;95480.03;6171485;23;20670;-59
2022/09/04 08:36:34;;;;;;;12.00;10.27;;;33.30;58.40;;;33.28;39.45;95480.66;6173597;23;20208;-60
2022/09/04 08:39:07;;;;;;;14.43;12.93;;;33.40;58.50;;;33.40;38.30;95473.03;6172629;23;20268;-55
2022/09/04 08:42:30;;;;;;;17.63;11.80;;;33.50;56.60;;;33.03;38.35;95474.00;6174334;23;20204;-56
2022/09/04 08:45:52;;;;;;;10.27;9.23;;;33.20;55.80;;;32.90;38.59;95477.25;6173787;23;20204;-54
2022/09/04 08:49:10;;;;;;;14.93;11.43;;;32.80;55.30;;;32.85;37.88;95469.88;6173478;23;20527;-59
2022/09/04 08:52:31;;;;;;;11.27;10.13;;;32.70;55.40;;;32.82;38.78;95464.94;6170537;23;20320;-53
2022/09/04 08:55:47;;;;;;;13.63;9.15;;;32.50;56.40;;;32.76;38.76;95458.66;6098826;23;20259;-60
2022/09/04 08:59:12;;;;;;;12.33;10.10;;;32.40;56.20;;;32.67;38.00;95447.47;6069280;23;20209;-58
2022/09/04 09:02:23;;;;;;;8.80;8.00;;;32.30;54.60;;;32.43;37.34;95451.66;6173160;23;20694;-59
2022/09/04 09:05:43;;;;;;;8.87;7.93;;;32.00;54.20;;;32.11;37.03;95444.38;6171479;23;20347;-60
2022/09/04 09:08:58;;;;;;;20.97;9.00;;;31.60;54.20;;;31.80;38.12;95442.22;6122008;23;20181;-60
2022/09/04 09:12:16;;;;;;;8.93;8.07;;;31.40;54.90;;;31.86;38.43;95453.16;6173625;23;20207;-54
2022/09/04 09:15:22;;;;;;;25.13;10.03;;;31.30;55.60;;;31.87;38.59;95452.06;6126863;23;20204;-61
2022/09/04 09:18:01;;;;;;;7.53;5.73;;;31.30;56.10;;;31.67;37.41;95456.28;6169205;23;20197;-59
2022/09/04 09:20:29;;;;;;;6.90;6.20;;;31.20;54.90;;;31.41;39.07;95449.75;6172344;23;20162;-56
2022/09/04 09:23:18;;;;;;;10.33;7.33;;;30.90;55.70;;;31.22;38.37;95454.75;6173763;23;20675;-56
2022/09/04 09:26:07;;;;;;;8.87;6.30;;;30.70;55.20;;;31.13;39.00;95456.28;6176588;23;20185;-58
2022/09/04 09:29:22;;;;;;;9.40;6.37;;;30.60;56.10;;;31.29;38.42;95444.47;6175327;23;20682;-61
2022/09/04 09:33:08;;;;;;;8.10;7.27;;;30.70;54.60;;;31.65;37.69;95442.09;6175568;23;20181;-61
2022/09/04 09:36:19;;;;;;;11.57;6.07;;;30.90;55.20;;;32.05;37.75;95438.06;6054027;23;20183;-61
2022/09/04 09:39:13;;;;;;;7.13;6.40;;;31.30;54.70;;;32.36;37.07;95446.44;6060537;23;20236;-60
2022/09/04 09:42:58;;;;;;;7.72;6.57;;;31.60;54.90;;;32.69;36.90;95444.47;6175964;23;20492;-57
2022/09/04 09:45:51;;;;;;;11.55;6.38;;;31.90;54.00;;;32.98;36.66;95435.84;5974873;23;20260;-54
2022/09/04 09:49:00;;;;;;;6.43;4.97;;;32.20;53.20;;;33.18;35.57;95435.91;6167864;23;20206;-56
2022/09/04 09:52:11;;;;;;;7.90;6.10;;;32.40;52.30;;;33.14;35.10;95423.06;6173588;23;20185;-62
2022/09/04 09:55:45;;;;;;;6.07;5.35;;;32.50;51.90;;;33.00;36.12;95418.13;6123973;23;20847;-60
2022/09/04 09:58:49;;;;;;;7.13;6.38;;;32.40;52.00;;;33.18;36.14;95413.25;6145365;23;20439;-56
2022/09/04 10:01:33;;;;;;;6.00;5.50;;;32.40;52.30;;;33.37;35.57;95402.69;6174724;23;20595;-61
2022/09/04 10:04:21;;;;;;;7.25;5.65;;;32.60;52.30;;;33.56;35.70;95403.78;6174426;23;20201;-55
2022/09/04 10:07:09;;;;;;;5.60;5.10;;;32.80;51.80;;;33.69;35.54;95413.34;6174465;23;20158;-55
2022/09/04 10:10:17;;;;;;;6.00;5.40;;;32.90;51.50;;;33.78;33.49;95412.84;6174451;23;20213;-61
2022/09/04 10:13:15;;;;;;;5.50;5.00;;;33.10;49.20;;;33.52;34.19;95412.78;6176541;23;20225;-60
2022/09/04 10:16:43;;;;;;;6.47;5.53;;;32.90;49.70;;;33.47;34.55;95408.16;6128002;23;20185;-60
2022/09/04 10:19:24;;;;;;;5.55;5.05;;;32.80;50.40;;;33.53;34.69;95398.88;6036244;23;20205;-57
2022/09/04 10:23:06;;;;;;;6.88;5.07;;;32.80;50.70;;;33.63;34.80;95387.13;6174890;23;20157;-62
2022/09/04 10:26:38;;;;;;;5.38;4.97;;;32.90;50.70;;;33.72;34.64;95388.25;5947604;23;20764;-56
2022/09/04 10:29:40;;;;;;;5.72;5.22;;;33.00;50.20;;;33.77;34.30;95381.97;6011151;23;20617;-60
2022/09/04 10:32:58;;;;;;;7.50;5.43;;;33.10;49.70;;;33.68;35.19;95389.88;6172402;23;20161;-55
2022/09/04 10:35:29;;;;;;;7.15;6.45;;;33.10;49.60;;;33.66;35.38;95383.06;6171168;23;20657;-54
2022/09/04 10:38:36;;;;;;;6.20;5.55;;;33.00;50.10;;;33.71;34.79;95388.50;6172255;23;20607;-54
2022/09/04 10:41:31;;;;;;;6.18;4.88;;;33.00;50.20;;;33.79;35.00;95388.00;6171889;23;20205;-54
2022/09/04 10:44:50;;;;;;;6.18;5.68;;;33.10;50.10;;;33.82;34.22;95372.97;6173379;23;20201;-60
2022/09/04 10:47:42;;;;;;;6.07;5.55;;;33.10;48.70;;;33.78;34.24;95364.53;6054352;23;20311;-54
2022/09/04 10:50:30;;;;;;;5.32;4.57;;;33.10;49.70;;;33.78;34.20;95361.78;6171266;23;20220;-60
2022/09/04 10:53:35;;;;;;;5.40;5.00;;;33.10;49.00;;;33.76;34.75;95364.00;6173991;23;20185;-60
2022/09/04 10:56:10;;;;;;;6.20;5.70;;;33.10;50.00;;;33.71;34.71;95361.22;6171833;23;20243;-60
2022/09/04 10:58:54;;;;;;;11.77;5.50;;;33.00;49.00;;;33.63;34.89;95354.41;6172064;23;20193;-56
2022/09/04 11:02:07;;;;;;;6.40;5.80;;;32.90;49.60;;;33.46;34.47;95360.13;6173135;23;20201;-60
2022/09/04 11:05:17;;;;;;;5.53;5.03;;;32.80;48.80;;;33.34;34.50;95351.41;6141687;23;20670;-54
2022/09/04 11:08:27;;;;;;;7.03;5.07;;;32.70;49.10;;;33.22;34.75;95341.59;6133854;23;20670;-61
2022/09/04 11:11:06;;;;;;;7.43;5.72;;;32.60;49.40;;;32.87;34.86;95348.63;6126129;23;20197;-58
2022/09/04 11:14:37;;;;;;;5.20;4.80;;;32.40;49.60;;;32.49;34.90;95344.41;6169881;23;20193;-56
2022/09/04 11:17:47;;;;;;;6.30;5.50;;;32.10;49.90;;;32.39;35.70;95345.16;6052073;23;20203;-55
2022/09/04 11:21:19;;;;;;;5.40;4.88;;;31.80;50.10;;;32.33;35.32;95338.06;6051906;23;20314;-59
2022/09/04 11:24:32;;;;;;;5.90;5.40;;;31.70;50.00;;;32.32;35.63;95350.06;6173575;23;20599;-59
2022/09/04 11:27:57;;;;;;;9.40;4.50;;;31.70;50.80;;;32.32;35.77;95334.53;6114486;23;20220;-59
2022/09/04 11:30:28;;;;;;;7.13;5.10;;;31.60;50.50;;;32.26;36.44;95348.41;6092072;23;20201;-54
2022/09/04 11:33:56;;;;;;;4.50;4.20;;;31.60;51.50;;;32.32;35.79;95336.44;6171520;23;20674;-59